createdAt,value
2017-08-05T05:31:39.464Z,17.46
2017-08-05T05:32:04.868Z,17.46
2017-08-05T05:32:30.324Z,17.59
2017-08-05T05:32:55.774Z,17.48
2017-08-05T05:33:21.220Z,17.56
2017-08-05T05:33:46.692Z,17.51
2017-08-05T05:34:12.174Z,17.45
2017-08-05T05:34:37.629Z,17.51
2017-08-05T05:35:03.121Z,17.48
2017-08-05T05:35:28.584Z,17.46
2017-08-05T05:35:54.101Z,17.44
2017-08-05T05:36:19.551Z,17.52
2017-08-05T05:36:44.987Z,17.41
2017-08-05T05:37:10.473Z,17.41
2017-08-05T05:37:35.946Z,17.42
2017-08-05T05:38:01.440Z,17.42
2017-08-05T05:38:26.909Z,17.34
2017-08-05T05:38:52.385Z,17.38
2017-08-05T05:39:17.870Z,17.36
2017-08-05T05:39:43.352Z,17.33
2017-08-05T05:40:08.828Z,17.33
2017-08-05T05:40:34.297Z,17.24
2017-08-05T05:40:59.779Z,17.16
2017-08-05T05:41:25.255Z,17.23
2017-08-05T05:41:50.718Z,17.22
2017-08-05T05:42:16.197Z,17.15
2017-08-05T05:42:41.672Z,17.2
2017-08-05T05:43:07.133Z,17.12
2017-08-05T05:43:32.571Z,17.11
2017-08-05T05:43:58.068Z,17.15
2017-08-05T05:44:23.524Z,17.11
2017-08-05T05:44:49.008Z,17.14
2017-08-05T05:45:14.464Z,17.08
2017-08-05T05:45:39.899Z,17.09
2017-08-05T05:46:05.371Z,17.08
2017-08-05T05:46:30.876Z,17.04
2017-08-05T05:46:56.407Z,17.04
2017-08-05T05:47:21.850Z,17.06
2017-08-05T05:47:47.319Z,16.96
2017-08-05T05:48:12.771Z,17.01
2017-08-05T05:48:38.248Z,17.02
2017-08-05T05:49:03.702Z,16.94
2017-08-05T05:49:29.191Z,16.99
2017-08-05T05:49:54.622Z,17.05
2017-08-05T05:50:20.098Z,17.01
2017-08-05T05:50:45.594Z,17.06
2017-08-05T05:51:11.133Z,17.05
2017-08-05T05:51:36.556Z,16.97
2017-08-05T05:52:02.083Z,17.02
2017-08-05T05:52:27.542Z,17.01
2017-08-05T05:52:53.012Z,17.05
2017-08-05T05:53:18.489Z,17.06
2017-08-05T05:53:43.951Z,17.01
2017-08-05T05:54:09.425Z,17.02
2017-08-05T05:54:34.902Z,17.02
2017-08-05T05:55:00.364Z,17.02
2017-08-05T05:55:25.889Z,17.08
2017-08-05T05:55:51.370Z,17.09
2017-08-05T05:56:16.856Z,17.04
2017-08-05T05:56:42.343Z,16.94
2017-08-05T05:57:07.857Z,17.04
2017-08-05T05:57:33.267Z,17.01
2017-08-05T05:57:58.757Z,17.05
2017-08-05T05:58:24.213Z,17.08
2017-08-05T05:58:49.790Z,17.06
2017-08-05T05:59:15.287Z,17.09
2017-08-05T05:59:40.776Z,17.05
2017-08-05T06:00:06.234Z,17.12
2017-08-05T06:00:31.694Z,17.08
2017-08-05T06:00:57.190Z,17.09
2017-08-05T06:01:22.715Z,17.09
2017-08-05T06:01:48.203Z,17.05
2017-08-05T06:02:13.672Z,17.16
2017-08-05T06:02:39.135Z,17.09
2017-08-05T06:03:04.598Z,17.15
2017-08-05T06:03:30.101Z,17.09
2017-08-05T06:03:55.598Z,17.09
2017-08-05T06:04:21.052Z,17.11
2017-08-05T06:04:46.563Z,17.08
2017-08-05T06:05:12.027Z,17.15
2017-08-05T06:05:37.534Z,17.12
2017-08-05T06:06:02.993Z,17.09
2017-08-05T06:06:28.519Z,17.06
2017-08-05T06:06:54.007Z,17.14
2017-08-05T06:07:19.487Z,17.12
2017-08-05T06:07:44.963Z,17.12
2017-08-05T06:08:10.462Z,17.09
2017-08-05T06:08:35.947Z,17.06
2017-08-05T06:09:01.401Z,17.05
2017-08-05T06:09:26.918Z,17.09
2017-08-05T06:09:52.387Z,17.08
2017-08-05T06:10:17.871Z,17.05
2017-08-05T06:10:43.344Z,17.11
2017-08-05T06:11:08.788Z,17.11
2017-08-05T06:11:34.250Z,17.11
2017-08-05T06:11:59.758Z,17.06
2017-08-05T06:12:25.248Z,17.12
2017-08-05T06:12:50.724Z,17.06
2017-08-05T06:13:16.194Z,17.08
2017-08-05T06:13:41.679Z,17.14
2017-08-05T06:14:07.180Z,17.06
2017-08-05T06:14:32.637Z,17.14
2017-08-05T06:15:36.222Z,17.06
2017-08-05T06:16:01.852Z,17.08
2017-08-05T06:16:27.331Z,17.05
2017-08-05T06:16:52.796Z,17.04
2017-08-05T06:17:18.260Z,17.11
2017-08-05T06:17:43.743Z,17.15
2017-08-05T06:18:09.236Z,17.11
2017-08-05T06:18:34.683Z,17.11
2017-08-05T06:19:00.185Z,17.09
2017-08-05T06:19:25.636Z,17.14
2017-08-05T06:19:51.124Z,17.08
2017-08-05T06:20:16.596Z,17.15
2017-08-05T06:20:42.097Z,17.11
2017-08-05T06:21:07.567Z,17.15
2017-08-05T06:21:33.006Z,17.19
2017-08-05T06:21:58.505Z,17.15
2017-08-05T06:22:24.005Z,17.12
2017-08-05T06:22:49.511Z,17.12
2017-08-05T06:23:15.023Z,17.19
2017-08-05T06:23:40.514Z,17.2
2017-08-05T06:24:05.999Z,17.26
2017-08-05T06:24:31.462Z,17.16
2017-08-05T06:24:56.888Z,17.27
2017-08-05T06:25:22.314Z,17.24
2017-08-05T06:25:47.794Z,17.29
2017-08-05T06:26:13.274Z,17.33
2017-08-05T06:26:38.760Z,17.29
2017-08-05T06:27:04.222Z,17.31
2017-08-05T06:27:29.684Z,17.3
2017-08-05T06:27:55.147Z,17.33
2017-08-05T06:28:20.601Z,17.36
2017-08-05T06:28:46.085Z,17.33
2017-08-05T06:29:11.560Z,17.33
2017-08-05T06:29:37.054Z,17.31
2017-08-05T06:30:02.518Z,17.42
2017-08-05T06:30:28.017Z,17.42
2017-08-05T06:30:53.471Z,17.54
2017-08-05T06:31:18.989Z,17.48
2017-08-05T06:31:44.470Z,17.52
2017-08-05T06:32:09.955Z,17.38
2017-08-05T06:32:35.453Z,17.52
2017-08-05T06:33:00.965Z,17.49
2017-08-05T06:33:26.457Z,17.51
2017-08-05T06:33:51.937Z,17.54
2017-08-05T06:34:17.450Z,17.51
2017-08-05T06:34:42.906Z,17.48
2017-08-05T06:35:08.403Z,17.54
2017-08-05T06:35:33.886Z,17.51
2017-08-05T06:35:59.368Z,17.45
2017-08-05T06:36:24.896Z,17.45
2017-08-05T06:36:50.336Z,17.49
2017-08-05T06:37:15.830Z,17.46
2017-08-05T06:37:41.312Z,17.48
2017-08-05T06:38:06.803Z,17.56
2017-08-05T06:38:32.261Z,17.44
2017-08-05T06:38:57.738Z,17.52
2017-08-05T06:39:23.234Z,17.45
2017-08-05T06:39:48.750Z,17.51
2017-08-05T06:40:14.202Z,17.51
2017-08-05T06:40:39.703Z,17.51
2017-08-05T06:41:05.192Z,17.49
2017-08-05T06:41:30.705Z,17.41
2017-08-05T06:41:56.163Z,17.46
2017-08-05T06:42:21.642Z,17.49
2017-08-05T06:42:47.142Z,17.52
2017-08-05T06:43:12.648Z,17.49
2017-08-05T06:43:38.147Z,17.54
2017-08-05T06:44:03.623Z,17.52
2017-08-05T06:44:29.084Z,17.44
2017-08-05T06:44:54.586Z,17.42
2017-08-05T06:45:20.028Z,17.46
2017-08-05T06:45:45.512Z,17.46
2017-08-05T06:46:10.982Z,17.44
2017-08-05T06:46:36.462Z,17.45
2017-08-05T06:47:01.954Z,17.42
2017-08-05T06:47:27.430Z,17.45
2017-08-05T06:47:52.901Z,17.33
2017-08-05T06:48:18.370Z,17.3
2017-08-05T06:48:43.830Z,17.33
2017-08-05T06:49:09.283Z,17.36
2017-08-05T06:49:34.793Z,17.46
2017-08-05T06:50:00.180Z,17.46
2017-08-05T06:50:25.643Z,17.44
2017-08-05T06:50:51.063Z,17.44
2017-08-05T06:51:16.578Z,17.48
2017-08-05T06:51:42.058Z,17.38
2017-08-05T06:52:07.504Z,17.41
2017-08-05T06:52:32.995Z,17.42
2017-08-05T06:52:58.433Z,17.39
2017-08-05T06:53:23.881Z,17.42
2017-08-05T06:53:49.363Z,17.34
2017-08-05T06:54:14.845Z,17.42
2017-08-05T06:54:40.306Z,17.39
2017-08-05T06:55:05.783Z,17.48
2017-08-05T06:55:31.260Z,17.51
2017-08-05T06:55:56.795Z,17.45
2017-08-05T06:56:22.274Z,17.51
2017-08-05T06:56:47.752Z,17.46
2017-08-05T06:57:13.229Z,17.46
2017-08-05T06:57:38.698Z,17.56
2017-08-05T06:58:04.210Z,17.52
2017-08-05T06:58:29.658Z,17.54
2017-08-05T06:58:55.108Z,17.52
2017-08-05T06:59:20.598Z,17.54
2017-08-05T06:59:46.065Z,17.51
2017-08-05T07:00:11.571Z,17.46
2017-08-05T07:00:37.038Z,17.46
2017-08-05T07:01:02.516Z,17.51
2017-08-05T07:02:06.126Z,17.51
2017-08-05T07:02:31.600Z,17.59
2017-08-05T07:02:57.097Z,17.52
2017-08-05T07:03:22.525Z,17.54
2017-08-05T07:03:47.994Z,17.49
2017-08-05T07:04:13.446Z,17.46
2017-08-05T07:04:38.911Z,17.44
2017-08-05T07:05:04.389Z,17.49
2017-08-05T07:05:29.833Z,17.48
2017-08-05T07:05:55.308Z,17.57
2017-08-05T07:06:20.778Z,17.54
2017-08-05T07:06:46.246Z,17.49
2017-08-05T07:07:11.725Z,17.45
2017-08-05T07:07:37.197Z,17.48
2017-08-05T07:08:02.694Z,17.39
2017-08-05T07:08:28.149Z,17.34
2017-08-05T07:08:53.658Z,17.41
2017-08-05T07:09:19.103Z,17.44
2017-08-05T07:09:44.599Z,17.46
2017-08-05T07:10:44.114Z,17.36
2017-08-05T07:11:09.592Z,17.33
2017-08-05T07:11:35.071Z,17.38
2017-08-05T07:12:00.521Z,17.33
2017-08-05T07:12:25.996Z,17.3
2017-08-05T07:12:51.485Z,17.33
2017-08-05T07:13:16.977Z,17.31
2017-08-05T07:13:42.565Z,17.27
2017-08-05T07:14:07.955Z,17.24
2017-08-05T07:14:33.442Z,17.29
2017-08-05T07:14:58.908Z,17.26
2017-08-05T07:15:24.384Z,17.26
2017-08-05T07:15:49.895Z,17.2
2017-08-05T07:16:15.351Z,17.27
2017-08-05T07:16:40.874Z,17.23
2017-08-05T07:17:06.307Z,17.23
2017-08-05T07:17:31.775Z,17.2
2017-08-05T07:17:57.261Z,17.2
2017-08-05T07:18:22.808Z,17.19
2017-08-05T07:18:48.267Z,17.24
2017-08-05T07:19:13.796Z,17.14
2017-08-05T07:19:39.271Z,17.16
2017-08-05T07:20:04.740Z,17.14
2017-08-05T07:20:30.188Z,17.11
2017-08-05T07:20:55.681Z,17.15
2017-08-05T07:21:21.168Z,17.15
2017-08-05T07:21:46.648Z,17.08
2017-08-05T07:22:12.098Z,17.09
2017-08-05T07:22:37.564Z,17.11
2017-08-05T07:23:03.077Z,17.15
2017-08-05T07:23:28.524Z,17.12
2017-08-05T07:23:53.984Z,17.15
2017-08-05T07:24:19.459Z,17.12
2017-08-05T07:24:44.946Z,17.08
2017-08-05T07:25:10.408Z,17.08
2017-08-05T07:25:35.886Z,17.09
2017-08-05T07:26:01.344Z,17.11
2017-08-05T07:26:26.798Z,17.11
2017-08-05T07:26:52.272Z,17.11
2017-08-05T07:27:17.762Z,17.11
2017-08-05T07:27:43.265Z,17.12
2017-08-05T07:28:08.744Z,17.08
2017-08-05T07:28:34.236Z,17.09
2017-08-05T07:28:59.718Z,17.12
2017-08-05T07:29:25.205Z,17.08
2017-08-05T07:29:50.684Z,17.09
2017-08-05T07:30:16.148Z,17.14
2017-08-05T07:30:41.635Z,17.15
2017-08-05T07:31:07.120Z,17.06
2017-08-05T07:31:32.593Z,17.14
2017-08-05T07:31:58.112Z,17.11
2017-08-05T07:32:23.570Z,17.14
2017-08-05T07:32:49.040Z,17.09
2017-08-05T07:33:14.476Z,17.12
2017-08-05T07:33:39.953Z,17.11
2017-08-05T07:34:05.443Z,17.11
2017-08-05T07:34:30.976Z,17.14
2017-08-05T07:34:56.467Z,17.14
2017-08-05T07:35:21.932Z,17.11
2017-08-05T07:35:47.396Z,17.12
2017-08-05T07:36:12.845Z,17.16
2017-08-05T07:36:38.312Z,17.12
2017-08-05T07:37:03.756Z,17.09
2017-08-05T07:37:29.256Z,17.11
2017-08-05T07:37:54.716Z,17.14
2017-08-05T07:38:20.222Z,17.09
2017-08-05T07:38:45.717Z,17.14
2017-08-05T07:39:11.259Z,17.14
2017-08-05T07:39:36.749Z,17.12
2017-08-05T07:40:02.242Z,17.14
2017-08-05T07:40:27.729Z,17.11
2017-08-05T07:40:53.186Z,17.15
2017-08-05T07:41:18.652Z,17.16
2017-08-05T07:41:44.146Z,17.22
2017-08-05T07:42:09.657Z,17.16
2017-08-05T07:42:35.143Z,17.24
2017-08-05T07:43:00.627Z,17.22
2017-08-05T07:43:26.107Z,17.22
2017-08-05T07:43:51.578Z,17.16
2017-08-05T07:44:17.099Z,17.22
2017-08-05T07:44:42.543Z,17.24
2017-08-05T07:45:08.016Z,17.19
2017-08-05T07:45:33.512Z,17.24
2017-08-05T07:45:58.990Z,17.2
2017-08-05T07:46:24.482Z,17.24
2017-08-05T07:46:49.999Z,17.29
2017-08-05T07:47:15.505Z,17.3
2017-08-05T07:47:41.008Z,17.29
2017-08-05T07:48:06.498Z,17.3
2017-08-05T07:48:32.006Z,17.34
2017-08-05T07:48:57.507Z,17.33
2017-08-05T07:49:22.992Z,17.34
2017-08-05T07:49:48.479Z,17.31
2017-08-05T07:50:13.950Z,17.36
2017-08-05T07:50:39.412Z,17.3
2017-08-05T07:51:04.887Z,17.45
2017-08-05T07:51:30.371Z,17.41
2017-08-05T07:51:55.842Z,17.42
2017-08-05T07:52:21.286Z,17.49
2017-08-05T07:52:46.773Z,17.45
2017-08-05T07:53:12.241Z,17.41
2017-08-05T07:53:37.693Z,17.48
2017-08-05T07:54:03.215Z,17.45
2017-08-05T07:54:28.689Z,17.52
2017-08-05T07:54:54.218Z,17.54
2017-08-05T07:55:19.673Z,17.48
2017-08-05T07:55:45.143Z,17.51
2017-08-05T07:56:10.663Z,17.45
2017-08-05T07:56:36.186Z,17.48
2017-08-05T07:57:01.654Z,17.51
2017-08-05T07:57:27.134Z,17.51
2017-08-05T07:57:52.577Z,17.56
2017-08-05T07:58:18.156Z,17.49
2017-08-05T07:58:43.638Z,17.59
2017-08-05T07:59:09.196Z,17.59
2017-08-05T07:59:34.673Z,17.46
2017-08-05T08:00:00.196Z,17.51
2017-08-05T08:00:25.665Z,17.6
2017-08-05T08:00:51.141Z,17.49
2017-08-05T08:01:16.651Z,17.48
2017-08-05T08:01:42.103Z,17.51
2017-08-05T08:02:07.621Z,17.46
2017-08-05T08:02:33.056Z,17.49
2017-08-05T08:02:58.474Z,17.46
2017-08-05T08:03:23.949Z,17.46
2017-08-05T08:03:49.453Z,17.46
2017-08-05T08:04:14.904Z,17.42
2017-08-05T08:04:40.411Z,17.51
2017-08-05T08:05:05.859Z,17.48
2017-08-05T08:05:31.379Z,17.49
2017-08-05T08:05:56.882Z,17.48
2017-08-05T08:06:22.397Z,17.52
2017-08-05T08:06:47.881Z,17.54
2017-08-05T08:07:13.288Z,17.51
2017-08-05T08:07:38.743Z,17.46
2017-08-05T08:08:04.272Z,17.45
2017-08-05T08:08:29.721Z,17.49
2017-08-05T08:08:55.192Z,17.48
2017-08-05T08:09:20.624Z,17.42
2017-08-05T08:09:46.159Z,17.42
2017-08-05T08:10:11.603Z,17.49
2017-08-05T08:10:37.076Z,17.44
2017-08-05T08:11:02.622Z,17.49
2017-08-05T08:11:28.043Z,17.51
2017-08-05T08:11:53.496Z,17.51
2017-08-05T08:12:18.969Z,17.46
2017-08-05T08:12:44.440Z,17.49
2017-08-05T08:13:09.910Z,17.48
2017-08-05T08:13:35.400Z,17.48
2017-08-05T08:14:00.882Z,17.51
2017-08-05T08:14:26.335Z,17.54
2017-08-05T08:14:51.810Z,17.44
2017-08-05T08:15:17.312Z,17.46
2017-08-05T08:15:42.784Z,17.44
2017-08-05T08:16:08.240Z,17.46
2017-08-05T08:16:33.711Z,17.52
2017-08-05T08:16:59.229Z,17.56
2017-08-05T08:17:24.682Z,17.51
2017-08-05T08:17:50.163Z,17.63
2017-08-05T08:18:15.620Z,17.56
2017-08-05T08:18:41.098Z,17.54
2017-08-05T08:19:06.588Z,17.63
2017-08-05T08:19:32.052Z,17.59
2017-08-05T08:19:57.529Z,17.63
2017-08-05T08:20:22.994Z,17.63
2017-08-05T08:20:48.488Z,17.63
2017-08-05T08:21:13.931Z,17.6
2017-08-05T08:21:39.424Z,17.56
2017-08-05T08:22:04.886Z,17.59
2017-08-05T08:22:30.387Z,17.52
2017-08-05T08:22:55.876Z,17.56
2017-08-05T08:23:21.367Z,17.56
2017-08-05T08:23:46.840Z,17.59
2017-08-05T08:24:12.300Z,17.63
2017-08-05T08:24:37.851Z,17.56
2017-08-05T08:25:03.310Z,17.54
2017-08-05T08:25:28.766Z,17.56
2017-08-05T08:25:54.257Z,17.51
2017-08-05T08:26:19.747Z,17.52
2017-08-05T08:26:45.219Z,17.52
2017-08-05T08:27:10.699Z,17.54
2017-08-05T08:27:36.186Z,17.52
2017-08-05T08:28:01.680Z,17.56
2017-08-05T08:28:27.110Z,17.45
2017-08-05T08:28:52.603Z,17.49
2017-08-05T08:29:18.067Z,17.48
2017-08-05T08:29:43.540Z,17.51
2017-08-05T08:30:09.022Z,17.59
2017-08-05T08:30:34.514Z,17.56
2017-08-05T08:31:00.014Z,17.56
2017-08-05T08:31:25.460Z,17.51
2017-08-05T08:31:50.911Z,17.57
2017-08-05T08:32:16.399Z,17.64
2017-08-05T08:32:41.862Z,17.59
2017-08-05T08:33:07.372Z,17.59
2017-08-05T08:33:32.836Z,17.6
2017-08-05T08:33:58.341Z,17.64
2017-08-05T08:34:23.826Z,17.6
2017-08-05T08:34:49.333Z,17.74
2017-08-05T08:35:14.803Z,17.72
2017-08-05T08:35:40.288Z,17.7
2017-08-05T08:36:05.792Z,17.68
2017-08-05T08:36:31.268Z,17.72
2017-08-05T08:36:56.780Z,17.68
2017-08-05T08:37:22.264Z,17.74
2017-08-05T08:37:47.736Z,17.72
2017-08-05T08:38:13.283Z,17.78
2017-08-05T08:38:38.784Z,17.74
2017-08-05T08:39:04.267Z,17.76
2017-08-05T08:39:29.772Z,17.76
2017-08-05T08:39:55.269Z,17.78
2017-08-05T08:40:20.765Z,17.79
2017-08-05T08:40:46.206Z,17.76
2017-08-05T08:41:11.680Z,17.79
2017-08-05T08:41:37.184Z,17.78
2017-08-05T08:42:02.646Z,17.71
2017-08-05T08:42:28.146Z,17.72
2017-08-05T08:42:53.620Z,17.8
2017-08-05T08:43:19.133Z,17.78
2017-08-05T08:43:44.649Z,17.72
2017-08-05T08:44:10.113Z,17.74
2017-08-05T08:44:35.638Z,17.78
2017-08-05T08:45:01.092Z,17.78
2017-08-05T08:45:26.550Z,17.74
2017-08-05T08:45:52.025Z,17.71
2017-08-05T08:46:17.443Z,17.68
2017-08-05T08:46:42.942Z,17.78
2017-08-05T08:47:08.465Z,17.78
2017-08-05T08:47:33.934Z,17.72
2017-08-05T08:47:59.403Z,17.71
2017-08-05T08:48:24.894Z,17.85
2017-08-05T08:48:50.397Z,17.7
2017-08-05T08:49:15.910Z,17.79
2017-08-05T08:49:41.445Z,17.78
2017-08-05T08:50:06.934Z,17.79
2017-08-05T08:50:32.444Z,17.71
2017-08-05T08:50:57.934Z,17.72
2017-08-05T08:51:23.448Z,17.71
2017-08-05T08:51:48.923Z,17.72
2017-08-05T08:52:14.455Z,17.7
2017-08-05T08:52:39.960Z,17.7
2017-08-05T08:53:05.397Z,17.65
2017-08-05T08:53:30.872Z,17.7
2017-08-05T08:53:56.434Z,17.74
2017-08-05T08:54:21.957Z,17.72
2017-08-05T08:54:47.436Z,17.71
2017-08-05T08:55:12.915Z,17.68
2017-08-05T08:55:38.399Z,17.79
2017-08-05T08:56:03.903Z,17.79
2017-08-05T08:56:29.436Z,17.71
2017-08-05T08:56:54.980Z,17.76
2017-08-05T08:57:20.476Z,17.76
2017-08-05T08:57:45.948Z,17.8
2017-08-05T08:58:11.476Z,17.79
2017-08-05T08:58:36.980Z,17.78
2017-08-05T08:59:02.438Z,17.8
2017-08-05T08:59:27.937Z,17.82
2017-08-05T08:59:53.476Z,17.82
2017-08-05T09:00:18.968Z,17.8
2017-08-05T09:00:44.432Z,17.82
2017-08-05T09:01:09.917Z,17.85
2017-08-05T09:01:35.403Z,17.82
2017-08-05T09:02:00.854Z,17.83
2017-08-05T09:02:26.335Z,17.79
2017-08-05T09:02:51.833Z,17.8
2017-08-05T09:03:17.382Z,17.83
2017-08-05T09:03:42.880Z,17.82
2017-08-05T09:04:08.351Z,17.82
2017-08-05T09:04:33.812Z,17.9
2017-08-05T09:04:59.270Z,17.97
2017-08-05T09:05:24.733Z,17.9
2017-08-05T09:05:50.226Z,18
2017-08-05T09:06:15.833Z,17.97
2017-08-05T09:06:41.346Z,18
2017-08-05T09:07:06.809Z,17.95
2017-08-05T09:07:32.314Z,17.98
2017-08-05T09:07:57.814Z,18.07
2017-08-05T09:08:23.350Z,18.07
2017-08-05T09:08:48.936Z,18.08
2017-08-05T09:09:14.422Z,18.08
2017-08-05T09:09:39.890Z,18.07
2017-08-05T09:10:05.391Z,18.05
2017-08-05T09:10:30.876Z,18.1
2017-08-05T09:10:56.390Z,18.07
2017-08-05T09:11:21.890Z,18.1
2017-08-05T09:11:47.372Z,18.13
2017-08-05T09:12:12.887Z,18.18
2017-08-05T09:12:38.392Z,18.1
2017-08-05T09:13:03.890Z,18.22
2017-08-05T09:13:29.387Z,18.16
2017-08-05T09:13:54.880Z,18.23
2017-08-05T09:14:20.393Z,18.15
2017-08-05T09:14:45.888Z,18.11
2017-08-05T09:15:11.368Z,18.19
2017-08-05T09:15:36.866Z,18.23
2017-08-05T09:16:02.360Z,18.25
2017-08-05T09:16:27.867Z,18.19
2017-08-05T09:16:53.347Z,18.22
2017-08-05T09:17:18.894Z,18.26
2017-08-05T09:17:44.358Z,18.26
2017-08-05T09:18:09.917Z,18.29
2017-08-05T09:18:35.358Z,18.26
2017-08-05T09:19:00.826Z,18.23
2017-08-05T09:19:26.325Z,18.26
2017-08-05T09:19:51.836Z,18.31
2017-08-05T09:20:17.337Z,18.25
2017-08-05T09:20:42.846Z,18.29
2017-08-05T09:21:08.448Z,18.29
2017-08-05T09:21:33.930Z,18.33
2017-08-05T09:21:59.435Z,18.25
2017-08-05T09:22:25.023Z,18.28
2017-08-05T09:22:50.479Z,18.34
2017-08-05T09:23:15.986Z,18.33
2017-08-05T09:23:41.585Z,18.29
2017-08-05T09:24:07.172Z,18.23
2017-08-05T09:24:32.657Z,18.26
2017-08-05T09:24:58.135Z,18.35
2017-08-05T09:25:23.822Z,18.28
2017-08-05T09:25:49.288Z,18.29
2017-08-05T09:26:14.756Z,18.26
2017-08-05T09:26:40.330Z,18.23
2017-08-05T09:27:44.119Z,18.31
2017-08-05T09:28:09.530Z,18.33
2017-08-05T09:28:35.040Z,18.2
2017-08-05T09:29:00.634Z,18.28
2017-08-05T09:29:26.236Z,18.18
2017-08-05T09:29:51.734Z,18.33
2017-08-05T09:30:17.232Z,18.23
2017-08-05T09:30:42.667Z,18.34
2017-08-05T09:31:08.218Z,18.33
2017-08-05T09:31:33.659Z,18.22
2017-08-05T09:31:59.282Z,18.34
2017-08-05T09:32:24.821Z,18.22
2017-08-05T09:32:50.332Z,18.35
2017-08-05T09:33:15.715Z,18.26
2017-08-05T09:33:41.296Z,18.26
2017-08-05T09:34:06.792Z,18.22
2017-08-05T09:34:32.206Z,18.22
2017-08-05T09:34:57.690Z,18.25
2017-08-05T09:35:23.203Z,18.22
2017-08-05T09:35:48.711Z,18.23
2017-08-05T09:36:14.198Z,18.15
2017-08-05T09:36:39.788Z,18.19
2017-08-05T09:37:05.318Z,18.22
2017-08-05T09:37:30.781Z,18.18
2017-08-05T09:37:56.233Z,18.28
2017-08-05T09:38:21.785Z,18.22
2017-08-05T09:38:47.217Z,18.18
2017-08-05T09:39:12.658Z,18.23
2017-08-05T09:39:38.195Z,18.23
2017-08-05T09:40:03.673Z,18.19
2017-08-05T09:40:29.186Z,18.13
2017-08-05T09:40:54.715Z,18.16
2017-08-05T09:41:20.213Z,18.16
2017-08-05T09:41:45.759Z,18.13
2017-08-05T09:42:11.176Z,18.19
2017-08-05T09:42:36.636Z,18.13
2017-08-05T09:43:02.156Z,18.19
2017-08-05T09:43:27.660Z,18.19
2017-08-05T09:43:53.155Z,18.15
2017-08-05T09:44:18.657Z,18.2
2017-08-05T09:44:44.152Z,18.18
2017-08-05T09:45:09.650Z,18.22
2017-08-05T09:45:35.079Z,18.18
2017-08-05T09:46:00.548Z,18.19
2017-08-05T09:46:26.037Z,18.22
2017-08-05T09:46:51.479Z,18.25
2017-08-05T09:47:16.924Z,18.18
2017-08-05T09:47:42.435Z,18.2
2017-08-05T09:48:07.860Z,18.2
2017-08-05T09:48:33.329Z,18.2
2017-08-05T09:48:58.809Z,18.16
2017-08-05T09:49:24.325Z,18.18
2017-08-05T09:49:49.812Z,18.19
2017-08-05T09:50:15.270Z,18.19
2017-08-05T09:51:08.710Z,18.1
2017-08-05T09:51:34.233Z,18.08
2017-08-05T09:51:59.731Z,18.04
2017-08-05T09:52:25.264Z,18.1
2017-08-05T09:52:50.836Z,18.05
2017-08-05T09:53:16.276Z,18.1
2017-08-05T09:53:41.752Z,18.11
2017-08-05T09:54:07.303Z,18.05
2017-08-05T09:54:33.004Z,18.03
2017-08-05T09:54:58.656Z,18.11
2017-08-05T09:55:24.127Z,18.07
2017-08-05T09:55:49.630Z,18.04
2017-08-05T09:56:15.179Z,18.08
2017-08-05T09:56:40.727Z,18.08
2017-08-05T09:57:06.273Z,18.04
2017-08-05T09:57:31.758Z,18.05
2017-08-05T09:57:57.241Z,18.1
2017-08-05T09:58:22.744Z,18.18
2017-08-05T09:58:48.228Z,18.1
2017-08-05T09:59:13.818Z,18.1
2017-08-05T09:59:39.315Z,18.08
2017-08-05T10:00:04.758Z,18.19
2017-08-05T10:00:30.251Z,18.28
2017-08-05T10:00:55.786Z,18.1
2017-08-05T10:01:21.295Z,18.29
2017-08-05T10:01:46.923Z,18.22
2017-08-05T10:02:12.487Z,18.22
2017-08-05T10:02:38.002Z,18.25
2017-08-05T10:03:03.442Z,18.31
2017-08-05T10:03:28.958Z,18.31
2017-08-05T10:03:54.491Z,18.23
2017-08-05T10:04:19.988Z,18.29
2017-08-05T10:04:45.509Z,18.31
2017-08-05T10:05:11.038Z,18.4
2017-08-05T10:05:36.543Z,18.44
2017-08-05T10:06:02.093Z,18.53
2017-08-05T10:06:27.588Z,18.52
2017-08-05T10:06:53.132Z,18.6
2017-08-05T10:07:18.644Z,18.58
2017-08-05T10:07:44.191Z,18.55
2017-08-05T10:08:09.718Z,18.71
2017-08-05T10:08:35.182Z,18.73
2017-08-05T10:09:00.685Z,18.8
2017-08-05T10:09:26.184Z,18.77
2017-08-05T10:09:51.656Z,18.75
2017-08-05T10:10:17.154Z,18.83
2017-08-05T10:10:42.668Z,18.89
2017-08-05T10:11:08.159Z,18.92
2017-08-05T10:11:33.675Z,18.98
2017-08-05T10:11:59.168Z,18.98
2017-08-05T10:12:24.603Z,18.99
2017-08-05T10:12:50.075Z,19.07
2017-08-05T10:13:15.558Z,19.09
2017-08-05T10:13:41.064Z,19.11
2017-08-05T10:14:06.523Z,19.16
2017-08-05T10:14:31.992Z,19.16
2017-08-05T10:14:57.479Z,19.16
2017-08-05T10:15:22.929Z,19.21
2017-08-05T10:15:48.423Z,19.19
2017-08-05T10:16:14.022Z,19.21
2017-08-05T10:16:39.540Z,19.29
2017-08-05T10:17:05.063Z,19.29
2017-08-05T10:17:30.534Z,19.27
2017-08-05T10:17:56.049Z,19.26
2017-08-05T10:18:21.535Z,19.29
2017-08-05T10:18:47.054Z,19.3
2017-08-05T10:19:12.549Z,19.26
2017-08-05T10:19:38.061Z,19.37
2017-08-05T10:20:03.553Z,19.27
2017-08-05T10:20:29.112Z,19.29
2017-08-05T10:20:54.488Z,19.31
2017-08-05T10:21:20.003Z,19.34
2017-08-05T10:21:45.465Z,19.33
2017-08-05T10:22:10.967Z,19.37
2017-08-05T10:22:36.445Z,19.45
2017-08-05T10:23:01.964Z,19.39
2017-08-05T10:23:27.492Z,19.36
2017-08-05T10:23:53.009Z,19.4
2017-08-05T10:24:18.512Z,19.44
2017-08-05T10:24:44.012Z,19.47
2017-08-05T10:25:09.490Z,19.45
2017-08-05T10:25:34.952Z,19.51
2017-08-05T10:26:00.438Z,19.52
2017-08-05T10:26:25.939Z,19.49
2017-08-05T10:26:51.437Z,19.56
2017-08-05T10:27:16.906Z,19.62
2017-08-05T10:27:42.360Z,19.58
2017-08-05T10:28:07.858Z,19.59
2017-08-05T10:28:33.364Z,19.66
2017-08-05T10:28:58.897Z,19.63
2017-08-05T10:29:24.366Z,19.74
2017-08-05T10:29:49.851Z,19.71
2017-08-05T10:30:15.363Z,19.71
2017-08-05T10:30:40.839Z,19.73
2017-08-05T10:31:06.418Z,19.74
2017-08-05T10:31:31.954Z,19.73
2017-08-05T10:31:57.497Z,19.74
2017-08-05T10:32:22.945Z,19.74
2017-08-05T10:32:48.408Z,19.76
2017-08-05T10:33:13.870Z,19.7
2017-08-05T10:33:39.353Z,19.73
2017-08-05T10:34:04.860Z,19.81
2017-08-05T10:34:30.324Z,19.76
2017-08-05T10:34:55.859Z,19.71
2017-08-05T10:35:21.323Z,19.81
2017-08-05T10:35:46.882Z,19.77
2017-08-05T10:36:12.443Z,19.74
2017-08-05T10:36:37.961Z,19.84
2017-08-05T10:37:03.423Z,19.79
2017-08-05T10:37:28.919Z,19.79
2017-08-05T10:37:54.408Z,19.82
2017-08-05T10:38:19.952Z,19.81
2017-08-05T10:38:45.442Z,19.76
2017-08-05T10:39:10.959Z,19.85
2017-08-05T10:39:36.453Z,19.73
2017-08-05T10:40:02.041Z,19.74
2017-08-05T10:40:27.516Z,19.71
2017-08-05T10:40:53.041Z,19.77
2017-08-05T10:41:18.642Z,19.7
2017-08-05T10:41:44.098Z,19.71
2017-08-05T10:42:09.611Z,19.7
2017-08-05T10:42:35.162Z,19.64
2017-08-05T10:43:00.870Z,19.58
2017-08-05T10:43:26.309Z,19.63
2017-08-05T10:44:19.726Z,19.58
2017-08-05T10:44:45.200Z,19.58
2017-08-05T10:45:10.682Z,19.58
2017-08-05T10:45:36.156Z,19.56
2017-08-05T10:46:01.630Z,19.56
2017-08-05T10:46:27.127Z,19.58
2017-08-05T10:46:52.575Z,19.51
2017-08-05T10:47:18.053Z,19.56
2017-08-05T10:47:43.499Z,19.52
2017-08-05T10:48:08.958Z,19.56
2017-08-05T10:48:34.459Z,19.59
2017-08-05T10:48:59.918Z,19.55
2017-08-05T10:49:25.409Z,19.58
2017-08-05T10:49:50.913Z,19.59
2017-08-05T10:50:16.416Z,19.56
2017-08-05T10:50:41.855Z,19.49
2017-08-05T10:51:07.337Z,19.54
2017-08-05T10:51:32.872Z,19.48
2017-08-05T10:51:58.393Z,19.58
2017-08-05T10:52:23.925Z,19.56
2017-08-05T10:52:49.399Z,19.58
2017-08-05T10:53:14.932Z,19.63
2017-08-05T10:53:40.404Z,19.64
2017-08-05T10:54:05.865Z,19.58
2017-08-05T10:54:31.391Z,19.58
2017-08-05T10:54:56.876Z,19.63
2017-08-05T10:55:22.346Z,19.62
2017-08-05T10:55:47.811Z,19.55
2017-08-05T10:56:13.281Z,19.62
2017-08-05T10:56:38.753Z,19.58
2017-08-05T10:57:04.202Z,19.51
2017-08-05T10:57:29.652Z,19.54
2017-08-05T10:57:55.125Z,19.63
2017-08-05T10:58:20.582Z,19.52
2017-08-05T10:58:46.024Z,19.54
2017-08-05T10:59:11.566Z,19.58
2017-08-05T10:59:37.040Z,19.48
2017-08-05T11:00:02.537Z,19.56
2017-08-05T11:00:28.017Z,19.55
2017-08-05T11:00:53.477Z,19.58
2017-08-05T11:01:18.927Z,19.51
2017-08-05T11:01:44.396Z,19.59
2017-08-05T11:02:09.964Z,19.55
2017-08-05T11:02:35.555Z,19.56
2017-08-05T11:03:01.076Z,19.58
2017-08-05T11:03:26.537Z,19.69
2017-08-05T11:03:51.999Z,19.59